sensor_id;sensor_type;location;lat;lon;timestamp;pressure;altitude;pressure_sealevel;temperature;humidity
54512;BME280;40419;47.438;19.026;2023-09-07T00:02:04;100506.97;;;17.62;91.20
54512;BME280;40419;47.438;19.026;2023-09-07T00:04:30;100511.16;;;17.65;90.79
54512;BME280;40419;47.438;19.026;2023-09-07T00:06:56;100510.69;;;17.68;89.22
54512;BME280;40419;47.438;19.026;2023-09-07T00:09:24;100511.34;;;17.63;91.43
54512;BME280;40419;47.438;19.026;2023-09-07T00:11:54;100512.03;;;17.47;90.86
54512;BME280;40419;47.438;19.026;2023-09-07T00:14:22;100512.16;;;17.52;89.08
54512;BME280;40419;47.438;19.026;2023-09-07T00:16:50;100506.47;;;17.53;91.74
54512;BME280;40419;47.438;19.026;2023-09-07T00:19:18;100507.03;;;17.44;93.92
54512;BME280;40419;47.438;19.026;2023-09-07T00:21:48;100518.13;;;17.49;92.23
54512;BME280;40419;47.438;19.026;2023-09-07T00:24:17;100510.22;;;17.41;93.42
54512;BME280;40419;47.438;19.026;2023-09-07T00:26:49;100507.47;;;17.41;91.95
54512;BME280;40419;47.438;19.026;2023-09-07T00:29:19;100512.13;;;17.40;91.37
54512;BME280;40419;47.438;19.026;2023-09-07T00:31:47;100516.38;;;17.36;93.05
54512;BME280;40419;47.438;19.026;2023-09-07T00:34:15;100511.47;;;17.26;93.10
54512;BME280;40419;47.438;19.026;2023-09-07T00:36:42;100505.13;;;17.14;93.79
54512;BME280;40419;47.438;19.026;2023-09-07T00:39:08;100518.81;;;17.14;93.09
54512;BME280;40419;47.438;19.026;2023-09-07T00:41:34;100509.91;;;17.18;93.62
54512;BME280;40419;47.438;19.026;2023-09-07T00:44:04;100516.88;;;17.14;93.80
54512;BME280;40419;47.438;19.026;2023-09-07T00:46:33;100512.47;;;17.13;93.65
54512;BME280;40419;47.438;19.026;2023-09-07T00:49:03;100510.59;;;17.14;95.07
54512;BME280;40419;47.438;19.026;2023-09-07T00:51:31;100510.59;;;17.14;94.35
54512;BME280;40419;47.438;19.026;2023-09-07T00:53:57;100510.44;;;17.09;94.86
54512;BME280;40419;47.438;19.026;2023-09-07T00:56:28;100516.53;;;16.92;94.48
54512;BME280;40419;47.438;19.026;2023-09-07T00:58:54;100512.91;;;16.98;95.75
54512;BME280;40419;47.438;19.026;2023-09-07T01:01:22;100511.81;;;16.99;95.20
54512;BME280;40419;47.438;19.026;2023-09-07T01:03:52;100507.19;;;17.00;95.17
54512;BME280;40419;47.438;19.026;2023-09-07T01:06:43;100512.44;;;17.02;93.90
54512;BME280;40419;47.438;19.026;2023-09-07T01:09:17;100512.44;;;17.02;95.65
54512;BME280;40419;47.438;19.026;2023-09-07T01:11:47;100503.00;;;16.97;95.33
54512;BME280;40419;47.438;19.026;2023-09-07T01:14:12;100504.53;;;16.93;96.83
54512;BME280;40419;47.438;19.026;2023-09-07T01:16:38;100517.84;;;16.90;97.05
54512;BME280;40419;47.438;19.026;2023-09-07T01:19:07;100515.81;;;16.78;97.35
54512;BME280;40419;47.438;19.026;2023-09-07T01:21:41;100514.69;;;16.68;97.82
54512;BME280;40419;47.438;19.026;2023-09-07T01:24:13;100512.53;;;16.51;98.63
54512;BME280;40419;47.438;19.026;2023-09-07T01:26:41;100515.06;;;16.53;98.42
54512;BME280;40419;47.438;19.026;2023-09-07T01:29:08;100506.53;;;16.42;100.00
54512;BME280;40419;47.438;19.026;2023-09-07T01:31:37;100508.88;;;16.39;100.00
54512;BME280;40419;47.438;19.026;2023-09-07T01:34:07;100505.78;;;16.35;100.00
54512;BME280;40419;47.438;19.026;2023-09-07T01:36:37;100505.03;;;16.46;100.00
54512;BME280;40419;47.438;19.026;2023-09-07T01:39:04;100511.47;;;16.34;100.00
54512;BME280;40419;47.438;19.026;2023-09-07T01:41:32;100501.88;;;16.24;100.00
54512;BME280;40419;47.438;19.026;2023-09-07T01:44:01;100505.59;;;16.30;100.00
54512;BME280;40419;47.438;19.026;2023-09-07T01:46:29;100502.28;;;16.28;100.00
54512;BME280;40419;47.438;19.026;2023-09-07T01:48:57;100507.56;;;16.23;100.00
54512;BME280;40419;47.438;19.026;2023-09-07T01:51:23;100513.03;;;16.23;100.00
54512;BME280;40419;47.438;19.026;2023-09-07T01:53:58;100508.56;;;16.28;100.00
54512;BME280;40419;47.438;19.026;2023-09-07T01:56:27;100506.69;;;16.29;100.00
54512;BME280;40419;47.438;19.026;2023-09-07T01:58:57;100504.22;;;16.21;100.00
54512;BME280;40419;47.438;19.026;2023-09-07T02:01:26;100499.34;;;16.23;100.00
54512;BME280;40419;47.438;19.026;2023-09-07T02:03:55;100506.47;;;16.30;100.00
54512;BME280;40419;47.438;19.026;2023-09-07T02:06:20;100519.03;;;16.32;100.00
54512;BME280;40419;47.438;19.026;2023-09-07T02:08:49;100511.94;;;16.30;100.00
54512;BME280;40419;47.438;19.026;2023-09-07T02:11:15;100511.03;;;16.37;100.00
54512;BME280;40419;47.438;19.026;2023-09-07T02:13:43;100507.84;;;16.40;100.00
54512;BME280;40419;47.438;19.026;2023-09-07T02:16:14;100508.97;;;16.32;100.00
54512;BME280;40419;47.438;19.026;2023-09-07T02:18:42;100502.66;;;16.32;100.00
54512;BME280;40419;47.438;19.026;2023-09-07T02:21:14;100509.34;;;16.36;99.84
54512;BME280;40419;47.438;19.026;2023-09-07T02:23:45;100512.66;;;16.38;100.00
54512;BME280;40419;47.438;19.026;2023-09-07T02:26:21;100506.25;;;16.32;100.00
54512;BME280;40419;47.438;19.026;2023-09-07T02:28:47;100501.00;;;16.30;100.00
54512;BME280;40419;47.438;19.026;2023-09-07T02:31:15;100509.34;;;16.36;100.00
54512;BME280;40419;47.438;19.026;2023-09-07T02:33:40;100509.78;;;16.33;100.00
54512;BME280;40419;47.438;19.026;2023-09-07T02:36:09;100515.09;;;16.27;100.00
54512;BME280;40419;47.438;19.026;2023-09-07T02:38:37;100515.47;;;16.31;100.00
54512;BME280;40419;47.438;19.026;2023-09-07T02:41:03;100518.44;;;16.29;100.00
54512;BME280;40419;47.438;19.026;2023-09-07T02:43:28;100520.38;;;16.22;100.00
54512;BME280;40419;47.438;19.026;2023-09-07T02:45:58;100521.75;;;16.13;100.00
54512;BME280;40419;47.438;19.026;2023-09-07T02:48:26;100523.41;;;16.14;100.00
54512;BME280;40419;47.438;19.026;2023-09-07T02:50:55;100516.72;;;16.10;100.00
54512;BME280;40419;47.438;19.026;2023-09-07T02:53:26;100520.00;;;16.19;100.00
54512;BME280;40419;47.438;19.026;2023-09-07T02:55:56;100517.97;;;16.14;100.00
54512;BME280;40419;47.438;19.026;2023-09-07T02:58:22;100519.47;;;16.10;100.00
54512;BME280;40419;47.438;19.026;2023-09-07T03:00:52;100521.59;;;16.08;100.00
54512;BME280;40419;47.438;19.026;2023-09-07T03:03:24;100521.19;;;16.04;100.00
54512;BME280;40419;47.438;19.026;2023-09-07T03:05:53;100518.00;;;16.07;100.00
54512;BME280;40419;47.438;19.026;2023-09-07T03:08:21;100516.56;;;16.05;100.00
54512;BME280;40419;47.438;19.026;2023-09-07T03:10:50;100516.94;;;16.08;100.00
54512;BME280;40419;47.438;19.026;2023-09-07T03:13:20;100527.66;;;16.10;100.00
54512;BME280;40419;47.438;19.026;2023-09-07T03:15:48;100524.75;;;16.05;100.00
54512;BME280;40419;47.438;19.026;2023-09-07T03:18:16;100518.63;;;16.09;100.00
54512;BME280;40419;47.438;19.026;2023-09-07T03:20:42;100523.00;;;16.10;100.00
54512;BME280;40419;47.438;19.026;2023-09-07T03:23:11;100522.03;;;16.05;100.00
54512;BME280;40419;47.438;19.026;2023-09-07T03:25:39;100522.63;;;16.07;100.00
54512;BME280;40419;47.438;19.026;2023-09-07T03:28:05;100522.84;;;16.05;100.00
54512;BME280;40419;47.438;19.026;2023-09-07T03:30:36;100519.94;;;16.00;100.00
54512;BME280;40419;47.438;19.026;2023-09-07T03:33:04;100520.13;;;16.05;100.00
54512;BME280;40419;47.438;19.026;2023-09-07T03:35:33;100517.09;;;16.13;99.68
54512;BME280;40419;47.438;19.026;2023-09-07T03:38:03;100517.97;;;16.14;99.14
54512;BME280;40419;47.438;19.026;2023-09-07T03:40:29;100514.59;;;16.12;100.00
54512;BME280;40419;47.438;19.026;2023-09-07T03:42:57;100518.19;;;16.12;99.89
54512;BME280;40419;47.438;19.026;2023-09-07T03:45:25;100512.94;;;16.11;100.00
54512;BME280;40419;47.438;19.026;2023-09-07T03:47:52;100524.84;;;16.17;99.89
54512;BME280;40419;47.438;19.026;2023-09-07T03:50:21;100512.94;;;16.11;98.79
54512;BME280;40419;47.438;19.026;2023-09-07T03:52:50;100518.09;;;16.19;99.63
54512;BME280;40419;47.438;19.026;2023-09-07T03:55:21;100525.06;;;16.15;99.86
54512;BME280;40419;47.438;19.026;2023-09-07T04:01:34;100518.63;;;16.09;99.49
54512;BME280;40419;47.438;19.026;2023-09-07T04:04:03;100518.84;;;16.08;99.41
54512;BME280;40419;47.438;19.026;2023-09-07T04:06:31;100522.44;;;16.02;98.84
54512;BME280;40419;47.438;19.026;2023-09-07T04:09:01;100521.81;;;16.06;99.30
54512;BME280;40419;47.438;19.026;2023-09-07T04:11:34;100532.28;;;16.09;99.96
54512;BME280;40419;47.438;19.026;2023-09-07T04:18:32;100535.28;;;16.01;99.67
54512;BME280;40419;47.438;19.026;2023-09-07T04:21:08;100532.09;;;16.04;100.00
54512;BME280;40419;47.438;19.026;2023-09-07T04:23:36;100530.59;;;16.08;100.00
54512;BME280;40419;47.438;19.026;2023-09-07T04:30:09;100527.34;;;16.18;99.75
54512;BME280;40419;47.438;19.026;2023-09-07T04:32:40;100530.81;;;16.32;99.03
54512;BME280;40419;47.438;19.026;2023-09-07T04:35:11;100537.13;;;16.33;99.93
54512;BME280;40419;47.438;19.026;2023-09-07T04:37:37;100534.50;;;16.44;98.42
54512;BME280;40419;47.438;19.026;2023-09-07T04:40:06;100539.19;;;16.56;96.93
54512;BME280;40419;47.438;19.026;2023-09-07T04:46:40;100536.88;;;16.34;96.15
54512;BME280;40419;47.438;19.026;2023-09-07T04:56:26;100539.75;;;16.64;96.95
54512;BME280;40419;47.438;19.026;2023-09-07T04:59:02;100540.34;;;16.66;94.64
54512;BME280;40419;47.438;19.026;2023-09-07T05:05:16;100547.22;;;16.76;95.41
54512;BME280;40419;47.438;19.026;2023-09-07T05:07:44;100552.38;;;16.84;94.93
54512;BME280;40419;47.438;19.026;2023-09-07T05:10:17;100552.38;;;16.84;95.74
54512;BME280;40419;47.438;19.026;2023-09-07T05:12:50;100547.94;;;16.83;96.63
54512;BME280;40419;47.438;19.026;2023-09-07T05:15:16;100551.25;;;16.92;94.42
54512;BME280;40419;47.438;19.026;2023-09-07T05:17:45;100555.75;;;17.05;94.30
54512;BME280;40419;47.438;19.026;2023-09-07T05:20:19;100547.53;;;17.05;93.47
54512;BME280;40419;47.438;19.026;2023-09-07T05:22:45;100559.75;;;17.02;94.96
54512;BME280;40419;47.438;19.026;2023-09-07T05:25:14;100562.50;;;17.02;94.29
54512;BME280;40419;47.438;19.026;2023-09-07T05:27:42;100555.28;;;17.08;96.66
54512;BME280;40419;47.438;19.026;2023-09-07T05:30:10;100562.03;;;17.05;96.45
54512;BME280;40419;47.438;19.026;2023-09-07T05:32:43;100568.34;;;17.06;95.86
54512;BME280;40419;47.438;19.026;2023-09-07T05:35:17;100571.69;;;17.08;97.93
54512;BME280;40419;47.438;19.026;2023-09-07T05:37:43;100569.19;;;17.06;96.13
54512;BME280;40419;47.438;19.026;2023-09-07T05:40:11;100567.25;;;17.25;93.49
54512;BME280;40419;47.438;19.026;2023-09-07T05:42:38;100581.09;;;17.30;93.77
54512;BME280;40419;47.438;19.026;2023-09-07T05:45:04;100574.03;;;17.41;95.19
54512;BME280;40419;47.438;19.026;2023-09-07T05:47:32;100563.44;;;17.45;93.82
54512;BME280;40419;47.438;19.026;2023-09-07T05:49:58;100576.19;;;17.51;94.59
54512;BME280;40419;47.438;19.026;2023-09-07T05:52:27;100563.03;;;17.60;93.75
54512;BME280;40419;47.438;19.026;2023-09-07T05:54:57;100563.44;;;17.45;91.32
54512;BME280;40419;47.438;19.026;2023-09-07T05:57:28;100564.53;;;17.44;93.46
54512;BME280;40419;47.438;19.026;2023-09-07T05:59:56;100569.78;;;17.57;93.86
54512;BME280;40419;47.438;19.026;2023-09-07T06:02:23;100570.25;;;17.54;96.88
54512;BME280;40419;47.438;19.026;2023-09-07T06:04:49;100577.31;;;17.62;94.01
54512;BME280;40419;47.438;19.026;2023-09-07T06:07:15;100575.94;;;17.71;94.49
54512;BME280;40419;47.438;19.026;2023-09-07T06:09:45;100578.69;;;17.83;93.40
54512;BME280;40419;47.438;19.026;2023-09-07T06:12:11;100584.25;;;17.95;92.70
54512;BME280;40419;47.438;19.026;2023-09-07T06:14:37;100586.38;;;17.93;92.45
54512;BME280;40419;47.438;19.026;2023-09-07T06:17:05;100589.59;;;17.89;89.75
54512;BME280;40419;47.438;19.026;2023-09-07T06:19:33;100584.53;;;18.17;93.39
54512;BME280;40419;47.438;19.026;2023-09-07T06:22:02;100590.63;;;18.31;89.72
54512;BME280;40419;47.438;19.026;2023-09-07T06:24:33;100582.91;;;18.39;92.38
54512;BME280;40419;47.438;19.026;2023-09-07T06:26:58;100582.53;;;18.48;90.55
54512;BME280;40419;47.438;19.026;2023-09-07T06:29:26;100587.06;;;18.54;92.04
54512;BME280;40419;47.438;19.026;2023-09-07T06:31:52;100594.38;;;18.60;92.54
54512;BME280;40419;47.438;19.026;2023-09-07T06:34:19;100595.06;;;18.67;87.88
54512;BME280;40419;47.438;19.026;2023-09-07T06:36:50;100590.19;;;18.81;88.22
54512;BME280;40419;47.438;19.026;2023-09-07T06:39:18;100596.63;;;18.87;84.22
54512;BME280;40419;47.438;19.026;2023-09-07T06:41:46;100602.34;;;18.97;85.63
54512;BME280;40419;47.438;19.026;2023-09-07T06:44:18;100591.94;;;18.99;85.22
54512;BME280;40419;47.438;19.026;2023-09-07T06:46:49;100591.50;;;19.02;84.51
54512;BME280;40419;47.438;19.026;2023-09-07T06:49:23;100590.03;;;19.11;86.49
54512;BME280;40419;47.438;19.026;2023-09-07T06:51:57;100595.38;;;19.30;86.48
54512;BME280;40419;47.438;19.026;2023-09-07T06:54:27;100603.13;;;19.33;84.60
54512;BME280;40419;47.438;19.026;2023-09-07T06:56:55;100600.19;;;19.52;87.74
54512;BME280;40419;47.438;19.026;2023-09-07T06:59:23;100603.19;;;19.50;84.33
54512;BME280;40419;47.438;19.026;2023-09-07T07:01:51;100607.31;;;19.64;81.86
54512;BME280;40419;47.438;19.026;2023-09-07T07:04:19;100608.13;;;19.65;84.01
54512;BME280;40419;47.438;19.026;2023-09-07T07:06:45;100608.28;;;19.58;80.52
54512;BME280;40419;47.438;19.026;2023-09-07T07:09:12;100613.06;;;19.63;83.43
54512;BME280;40419;47.438;19.026;2023-09-07T07:11:39;100608.22;;;19.82;83.51
54512;BME280;40419;47.438;19.026;2023-09-07T07:14:09;100604.13;;;19.85;83.33
54512;BME280;40419;47.438;19.026;2023-09-07T07:16:38;100610.50;;;20.02;81.37
54512;BME280;40419;47.438;19.026;2023-09-07T07:19:04;100618.16;;;20.00;80.92
54512;BME280;40419;47.438;19.026;2023-09-07T07:21:41;100618.41;;;20.15;84.08
54512;BME280;40419;47.438;19.026;2023-09-07T07:24:09;100601.72;;;20.34;81.02
54512;BME280;40419;47.438;19.026;2023-09-07T07:26:36;100610.63;;;20.41;82.23
54512;BME280;40419;47.438;19.026;2023-09-07T07:29:05;100607.44;;;20.49;77.94
54512;BME280;40419;47.438;19.026;2023-09-07T07:31:34;100603.88;;;20.49;76.66
54512;BME280;40419;47.438;19.026;2023-09-07T07:34:00;100611.78;;;20.62;79.03
54512;BME280;40419;47.438;19.026;2023-09-07T07:36:25;100620.41;;;20.66;77.38
54512;BME280;40419;47.438;19.026;2023-09-07T07:38:58;100611.53;;;20.64;77.04
54512;BME280;40419;47.438;19.026;2023-09-07T07:41:24;100610.69;;;20.63;77.90
54512;BME280;40419;47.438;19.026;2023-09-07T07:43:54;100614.13;;;20.70;77.78
54512;BME280;40419;47.438;19.026;2023-09-07T07:46:22;100614.03;;;20.82;75.33
54512;BME280;40419;47.438;19.026;2023-09-07T07:48:53;100631.69;;;21.03;76.27
54512;BME280;40419;47.438;19.026;2023-09-07T07:51:21;100614.50;;;20.96;74.59
54512;BME280;40419;47.438;19.026;2023-09-07T07:53:51;100606.41;;;21.06;74.54
54512;BME280;40419;47.438;19.026;2023-09-07T07:56:19;100608.78;;;21.20;76.75
54512;BME280;40419;47.438;19.026;2023-09-07T07:58:47;100615.63;;;21.17;73.42
54512;BME280;40419;47.438;19.026;2023-09-07T08:01:20;100610.25;;;21.28;75.99
54512;BME280;40419;47.438;19.026;2023-09-07T08:03:55;100613.56;;;21.30;74.51
54512;BME280;40419;47.438;19.026;2023-09-07T08:06:21;100614.88;;;21.44;74.24
54512;BME280;40419;47.438;19.026;2023-09-07T08:08:50;100608.19;;;21.40;74.72
54512;BME280;40419;47.438;19.026;2023-09-07T08:11:18;100615.13;;;21.65;75.59
54512;BME280;40419;47.438;19.026;2023-09-07T08:13:47;100609.59;;;21.65;71.27
54512;BME280;40419;47.438;19.026;2023-09-07T08:16:15;100613.78;;;21.67;70.48
54512;BME280;40419;47.438;19.026;2023-09-07T08:18:41;100611.91;;;21.73;68.97
54512;BME280;40419;47.438;19.026;2023-09-07T08:21:09;100609.81;;;21.58;73.42
54512;BME280;40419;47.438;19.026;2023-09-07T08:23:36;100603.13;;;21.76;76.35
54512;BME280;40419;47.438;19.026;2023-09-07T08:26:02;100603.78;;;21.88;73.07
54512;BME280;40419;47.438;19.026;2023-09-07T08:28:30;100605.56;;;22.00;72.06
54512;BME280;40419;47.438;19.026;2023-09-07T08:30:59;100601.19;;;22.04;70.21
54512;BME280;40419;47.438;19.026;2023-09-07T08:33:26;100600.28;;;21.98;70.26
54512;BME280;40419;47.438;19.026;2023-09-07T08:35:56;100607.34;;;22.16;68.58
54512;BME280;40419;47.438;19.026;2023-09-07T08:38:22;100607.28;;;22.06;68.50
54512;BME280;40419;47.438;19.026;2023-09-07T08:40:53;100598.44;;;22.04;69.37
54512;BME280;40419;47.438;19.026;2023-09-07T08:43:20;100593.78;;;22.09;68.87
54512;BME280;40419;47.438;19.026;2023-09-07T08:45:50;100594.50;;;22.27;69.84
54512;BME280;40419;47.438;19.026;2023-09-07T08:48:31;100592.63;;;22.33;66.61
54512;BME280;40419;47.438;19.026;2023-09-07T08:51:02;100587.56;;;22.57;65.76
54512;BME280;40419;47.438;19.026;2023-09-07T08:53:30;100581.59;;;22.33;68.10
54512;BME280;40419;47.438;19.026;2023-09-07T08:55:56;100579.09;;;22.31;65.15
54512;BME280;40419;47.438;19.026;2023-09-07T08:58:24;100589.78;;;22.55;66.92
54512;BME280;40419;47.438;19.026;2023-09-07T09:00:52;100583.09;;;22.45;63.70
54512;BME280;40419;47.438;19.026;2023-09-07T09:03:23;100587.03;;;22.60;64.87
54512;BME280;40419;47.438;19.026;2023-09-07T09:05:50;100582.81;;;22.85;62.63
54512;BME280;40419;47.438;19.026;2023-09-07T09:08:15;100579.63;;;22.65;66.33
54512;BME280;40419;47.438;19.026;2023-09-07T09:10:46;100574.44;;;22.74;63.20
54512;BME280;40419;47.438;19.026;2023-09-07T09:13:16;100582.22;;;22.82;63.42
54512;BME280;40419;47.438;19.026;2023-09-07T09:15:52;100586.19;;;22.97;63.51
54512;BME280;40419;47.438;19.026;2023-09-07T09:18:21;100577.63;;;22.98;61.80
54512;BME280;40419;47.438;19.026;2023-09-07T09:20:48;100577.38;;;23.05;62.21
54512;BME280;40419;47.438;19.026;2023-09-07T09:23:17;100589.94;;;23.28;57.04
54512;BME280;40419;47.438;19.026;2023-09-07T09:25:43;100586.06;;;23.24;56.14
54512;BME280;40419;47.438;19.026;2023-09-07T09:28:13;100576.94;;;23.24;56.31
54512;BME280;40419;47.438;19.026;2023-09-07T09:30:38;100587.72;;;23.30;57.41
54512;BME280;40419;47.438;19.026;2023-09-07T09:33:13;100580.03;;;23.43;55.77
54512;BME280;40419;47.438;19.026;2023-09-07T09:35:39;100585.59;;;23.48;56.10
54512;BME280;40419;47.438;19.026;2023-09-07T09:38:04;100578.13;;;23.48;54.16
54512;BME280;40419;47.438;19.026;2023-09-07T09:40:35;100574.75;;;23.31;57.75
54512;BME280;40419;47.438;19.026;2023-09-07T09:43:04;100583.06;;;23.41;54.24
54512;BME280;40419;47.438;19.026;2023-09-07T09:45:34;100570.66;;;23.49;55.14
54512;BME280;40419;47.438;19.026;2023-09-07T09:48:01;100576.53;;;23.63;53.91
54512;BME280;40419;47.438;19.026;2023-09-07T09:50:27;100572.56;;;23.38;53.96
54512;BME280;40419;47.438;19.026;2023-09-07T09:52:59;100577.66;;;23.72;53.30
54512;BME280;40419;47.438;19.026;2023-09-07T09:55:30;100571.00;;;23.68;53.48
54512;BME280;40419;47.438;19.026;2023-09-07T09:57:56;100578.47;;;23.78;54.13
54512;BME280;40419;47.438;19.026;2023-09-07T10:00:22;100568.78;;;23.65;53.16
54512;BME280;40419;47.438;19.026;2023-09-07T10:03:31;100566.84;;;23.81;54.77
54512;BME280;40419;47.438;19.026;2023-09-07T10:06:10;100572.09;;;23.82;52.54
54512;BME280;40419;47.438;19.026;2023-09-07T10:08:38;100571.56;;;23.80;53.74
54512;BME280;40419;47.438;19.026;2023-09-07T10:11:11;100568.78;;;23.80;52.29
54512;BME280;40419;47.438;19.026;2023-09-07T10:13:36;100565.25;;;23.95;52.76
54512;BME280;40419;47.438;19.026;2023-09-07T10:16:06;100561.41;;;24.12;51.91
54512;BME280;40419;47.438;19.026;2023-09-07T10:18:38;100564.69;;;24.03;52.58
54512;BME280;40419;47.438;19.026;2023-09-07T10:21:06;100562.50;;;24.21;50.53
54512;BME280;40419;47.438;19.026;2023-09-07T10:28:43;100556.13;;;24.10;49.56
54512;BME280;40419;47.438;19.026;2023-09-07T10:31:19;100555.03;;;24.11;50.28
54512;BME280;40419;47.438;19.026;2023-09-07T10:33:46;100554.47;;;24.09;53.60
54512;BME280;40419;47.438;19.026;2023-09-07T10:36:23;100550.31;;;24.01;52.07
54512;BME280;40419;47.438;19.026;2023-09-07T10:38:49;100545.06;;;24.15;51.81
54512;BME280;40419;47.438;19.026;2023-09-07T10:41:18;100550.88;;;24.24;52.32
54512;BME280;40419;47.438;19.026;2023-09-07T10:43:52;100550.88;;;24.29;50.29
54512;BME280;40419;47.438;19.026;2023-09-07T10:46:27;100551.72;;;24.19;47.74
54512;BME280;40419;47.438;19.026;2023-09-07T10:48:53;100541.75;;;24.23;45.98
54512;BME280;40419;47.438;19.026;2023-09-07T10:51:20;100553.63;;;24.24;47.57
54512;BME280;40419;47.438;19.026;2023-09-07T10:53:47;100540.91;;;24.08;49.29
54512;BME280;40419;47.438;19.026;2023-09-07T10:56:15;100534.81;;;24.00;47.92
54512;BME280;40419;47.438;19.026;2023-09-07T10:58:43;100534.81;;;24.00;51.90
54512;BME280;40419;47.438;19.026;2023-09-07T11:01:11;100534.56;;;23.92;52.21
54512;BME280;40419;47.438;19.026;2023-09-07T11:03:39;100532.88;;;23.96;51.51
54512;BME280;40419;47.438;19.026;2023-09-07T11:06:11;100542.28;;;24.05;49.36
54512;BME280;40419;47.438;19.026;2023-09-07T11:08:42;100534.28;;;24.14;47.88
54512;BME280;40419;47.438;19.026;2023-09-07T11:11:13;100532.91;;;24.11;47.00
54512;BME280;40419;47.438;19.026;2023-09-07T11:13:39;100524.31;;;23.92;47.14
54512;BME280;40419;47.438;19.026;2023-09-07T11:16:07;100528.19;;;24.17;47.99
54512;BME280;40419;47.438;19.026;2023-09-07T11:18:41;100519.34;;;24.20;49.51
54512;BME280;40419;47.438;19.026;2023-09-07T11:21:12;100521.28;;;24.04;47.70
54512;BME280;40419;47.438;19.026;2023-09-07T11:23:40;100512.72;;;24.16;47.00
54512;BME280;40419;47.438;19.026;2023-09-07T11:26:07;100517.38;;;24.41;45.12
54512;BME280;40419;47.438;19.026;2023-09-07T11:28:35;100509.03;;;24.51;45.66
54512;BME280;40419;47.438;19.026;2023-09-07T11:31:03;100509.91;;;24.41;46.46
54512;BME280;40419;47.438;19.026;2023-09-07T11:33:32;100509.91;;;24.52;45.21
54512;BME280;40419;47.438;19.026;2023-09-07T11:35:58;100519.53;;;24.75;43.82
54512;BME280;40419;47.438;19.026;2023-09-07T11:38:29;100514.34;;;24.58;45.75
54512;BME280;40419;47.438;19.026;2023-09-07T11:40:56;100510.44;;;24.64;45.01
54512;BME280;40419;47.438;19.026;2023-09-07T11:43:24;100510.34;;;24.85;44.12
54512;BME280;40419;47.438;19.026;2023-09-07T11:45:51;100503.81;;;24.60;43.66
54512;BME280;40419;47.438;19.026;2023-09-07T11:48:17;100512.09;;;24.55;43.12
54512;BME280;40419;47.438;19.026;2023-09-07T11:50:46;100510.44;;;24.44;45.39
54512;BME280;40419;47.438;19.026;2023-09-07T11:53:12;100502.72;;;24.35;44.07
54512;BME280;40419;47.438;19.026;2023-09-07T11:55:42;100492.47;;;24.41;45.53
54512;BME280;40419;47.438;19.026;2023-09-07T11:58:08;100491.94;;;24.34;48.33
54512;BME280;40419;47.438;19.026;2023-09-07T12:00:34;100493.31;;;24.31;46.06
54512;BME280;40419;47.438;19.026;2023-09-07T12:02:59;100490.00;;;24.34;44.85
54512;BME280;40419;47.438;19.026;2023-09-07T12:05:27;100486.63;;;24.63;43.72
54512;BME280;40419;47.438;19.026;2023-09-07T12:07:55;100492.44;;;24.51;45.60
54512;BME280;40419;47.438;19.026;2023-09-07T12:10:24;100488.59;;;24.42;47.06
54512;BME280;40419;47.438;19.026;2023-09-07T12:12:52;100485.25;;;24.55;46.33
54512;BME280;40419;47.438;19.026;2023-09-07T12:15:20;100483.25;;;24.76;46.30
54512;BME280;40419;47.438;19.026;2023-09-07T12:17:53;100489.94;;;24.70;44.74
54512;BME280;40419;47.438;19.026;2023-09-07T12:20:23;100486.88;;;24.72;44.95
54512;BME280;40419;47.438;19.026;2023-09-07T12:22:50;100485.25;;;24.66;43.71
54512;BME280;40419;47.438;19.026;2023-09-07T12:25:16;100482.19;;;24.62;44.07
54512;BME280;40419;47.438;19.026;2023-09-07T12:27:42;100467.81;;;24.60;45.34
54512;BME280;40419;47.438;19.026;2023-09-07T12:30:11;100481.94;;;24.58;46.93
54512;BME280;40419;47.438;19.026;2023-09-07T12:32:39;100477.19;;;24.69;45.24
54512;BME280;40419;47.438;19.026;2023-09-07T12:35:08;100478.84;;;24.70;44.49
54512;BME280;40419;47.438;19.026;2023-09-07T12:37:36;100476.91;;;24.76;44.48
54512;BME280;40419;47.438;19.026;2023-09-07T12:40:03;100476.03;;;24.86;44.35
54512;BME280;40419;47.438;19.026;2023-09-07T12:42:40;100471.38;;;24.76;44.38
54512;BME280;40419;47.438;19.026;2023-09-07T12:45:09;100480.75;;;24.85;43.63
54512;BME280;40419;47.438;19.026;2023-09-07T12:47:35;100471.38;;;24.76;43.85
54512;BME280;40419;47.438;19.026;2023-09-07T12:50:05;100463.63;;;24.68;45.37
54512;BME280;40419;47.438;19.026;2023-09-07T12:52:33;100460.53;;;24.80;45.50
54512;BME280;40419;47.438;19.026;2023-09-07T12:55:02;100455.31;;;24.68;46.17
54512;BME280;40419;47.438;19.026;2023-09-07T12:57:27;100453.13;;;24.65;44.19
54512;BME280;40419;47.438;19.026;2023-09-07T12:59:55;100460.59;;;24.69;43.89
54512;BME280;40419;47.438;19.026;2023-09-07T13:02:23;100461.91;;;24.87;43.27
54512;BME280;40419;47.438;19.026;2023-09-07T13:04:54;100460.94;;;25.12;39.75
54512;BME280;40419;47.438;19.026;2023-09-07T13:07:24;100455.34;;;25.18;42.12
54512;BME280;40419;47.438;19.026;2023-09-07T13:09:57;100461.00;;;25.02;41.63
54512;BME280;40419;47.438;19.026;2023-09-07T13:12:25;100447.66;;;25.09;41.18
54512;BME280;40419;47.438;19.026;2023-09-07T13:14:53;100446.03;;;24.98;41.94
54512;BME280;40419;47.438;19.026;2023-09-07T13:17:18;100455.22;;;24.99;41.36
54512;BME280;40419;47.438;19.026;2023-09-07T13:19:44;100453.59;;;24.87;40.64